THA922 VTBS-EDDF
Flight info
| Callsign | THA922 |
|---|---|
| Flight time | N/A |
| Altitude | 34000 |
| Route | NUNLI1E NUNLI L507 TEBOV/N0501F360 L507 CEA R460 LKN R594 DPN G333 MERUN L750 BINDO/N0497F380 L750 RANAH B449 MAMED B450 BIBIM A909 TUGTA B701 LARGI N701 LUSAL M11 EDATA/N0493F400 M11 REBLO UM11 CRM UL746 ODERO L746 LUGEB DCT PEXAL DCT TIXIP DCT TEGRI DCT ARSIN DCT SITNI DCT SUBEN DCT AKINI T161 DEBHI DEBHI1C |
| Aircraft | A359/H-SDE2E3GHIJ3J4J5LM1ORWXY/LB1D1 |
Departure
| Time | 2026-05-08 06:17 |
|---|---|
| Airport | Suvarnabhumi Airport (VTBS) |
Arrival
| Time | N/A |
|---|---|
| Airport | Frankfurt Main Airport (EDDF) |
| Time | Latitude | Longitude | Altitude | Speed | Heading |
|---|---|---|---|---|---|
| 2026-05-08 05:33 | 13.68741 | 100.75259 | 20 ft | 0 kts | 105° |
| 2026-05-08 06:05 | 13.68743 | 100.75252 | 21 ft | 4 kts | 104° |
| 2026-05-08 06:06 | 13.68750 | 100.75225 | 21 ft | 4 kts | 103° |
| 2026-05-08 06:06 | 13.68755 | 100.75204 | 21 ft | 4 kts | 122° |
| 2026-05-08 06:06 | 13.68767 | 100.75190 | 21 ft | 4 kts | 165° |
| 2026-05-08 06:06 | 13.68792 | 100.75187 | 23 ft | 4 kts | 187° |
| 2026-05-08 06:07 | 13.68812 | 100.75191 | 22 ft | 0 kts | 194° |
| 2026-05-08 06:09 | 13.68810 | 100.75190 | 20 ft | 2 kts | 194° |
| 2026-05-08 06:09 | 13.68758 | 100.75177 | 20 ft | 10 kts | 194° |
| 2026-05-08 06:09 | 13.68690 | 100.75159 | 20 ft | 10 kts | 194° |
| 2026-05-08 06:10 | 13.68622 | 100.75136 | 20 ft | 10 kts | 212° |
| 2026-05-08 06:10 | 13.68605 | 100.75065 | 20 ft | 12 kts | 281° |
| 2026-05-08 06:10 | 13.68623 | 100.74984 | 20 ft | 12 kts | 284° |
| 2026-05-08 06:10 | 13.68649 | 100.74881 | 20 ft | 17 kts | 287° |
| 2026-05-08 06:11 | 13.68678 | 100.74768 | 20 ft | 16 kts | 284° |
| 2026-05-08 06:11 | 13.68707 | 100.74655 | 20 ft | 16 kts | 284° |
| 2026-05-08 06:11 | 13.68736 | 100.74543 | 20 ft | 16 kts | 284° |
| 2026-05-08 06:11 | 13.68764 | 100.74432 | 20 ft | 16 kts | 284° |
| 2026-05-08 06:12 | 13.68792 | 100.74320 | 20 ft | 16 kts | 284° |
| 2026-05-08 06:12 | 13.68833 | 100.74223 | 20 ft | 13 kts | 326° |
| 2026-05-08 06:12 | 13.68894 | 100.74223 | 20 ft | 8 kts | 14° |
| 2026-05-08 06:12 | 13.68969 | 100.74244 | 20 ft | 15 kts | 15° |
| 2026-05-08 06:13 | 13.69086 | 100.74276 | 20 ft | 18 kts | 14° |
| 2026-05-08 06:13 | 13.69216 | 100.74309 | 20 ft | 21 kts | 14° |
| 2026-05-08 06:13 | 13.69357 | 100.74346 | 20 ft | 21 kts | 14° |
| 2026-05-08 06:13 | 13.69499 | 100.74383 | 20 ft | 21 kts | 14° |
| 2026-05-08 06:14 | 13.69639 | 100.74420 | 20 ft | 21 kts | 14° |
| 2026-05-08 06:14 | 13.69780 | 100.74456 | 20 ft | 21 kts | 14° |
| 2026-05-08 06:14 | 13.69926 | 100.74494 | 20 ft | 23 kts | 14° |
| 2026-05-08 06:14 | 13.70077 | 100.74534 | 20 ft | 23 kts | 14° |
| 2026-05-08 06:15 | 13.70230 | 100.74574 | 20 ft | 23 kts | 14° |
| 2026-05-08 06:15 | 13.70336 | 100.74521 | 20 ft | 15 kts | 279° |
| 2026-05-08 06:15 | 13.70340 | 100.74415 | 21 ft | 15 kts | 275° |
| 2026-05-08 06:15 | 13.70330 | 100.74321 | 21 ft | 12 kts | 236° |
| 2026-05-08 06:16 | 13.70274 | 100.74292 | 21 ft | 8 kts | 198° |
| 2026-05-08 06:16 | 13.70195 | 100.74272 | 22 ft | 24 kts | 194° |
| 2026-05-08 06:16 | 13.69826 | 100.74176 | 20 ft | 85 kts | 194° |
| 2026-05-08 06:16 | 13.69083 | 100.73981 | 21 ft | 137 kts | 194° |
| 2026-05-08 06:17 | 13.66787 | 100.73393 | 596 ft | 182 kts | 193° |
| 2026-05-08 06:17 | 13.65531 | 100.73080 | 1150 ft | 188 kts | 193° |
| 2026-05-08 06:17 | 13.64252 | 100.72580 | 1494 ft | 208 kts | 211° |
| 2026-05-08 06:18 | 13.63271 | 100.71428 | 1895 ft | 230 kts | 247° |
| 2026-05-08 06:18 | 13.63157 | 100.69715 | 2389 ft | 255 kts | 286° |
| 2026-05-08 06:18 | 13.64113 | 100.68181 | 3277 ft | 261 kts | 322° |
| 2026-05-08 06:18 | 13.65617 | 100.67159 | 4220 ft | 266 kts | 330° |
| 2026-05-08 06:19 | 13.67218 | 100.66136 | 5119 ft | 273 kts | 328° |
| 2026-05-08 06:19 | 13.68798 | 100.65015 | 6018 ft | 279 kts | 326° |
| 2026-05-08 06:19 | 13.70373 | 100.63817 | 6867 ft | 284 kts | 324° |
| 2026-05-08 06:19 | 13.71949 | 100.62572 | 7712 ft | 287 kts | 323° |
| 2026-05-08 06:20 | 13.73547 | 100.61284 | 8449 ft | 297 kts | 323° |
| 2026-05-08 06:20 | 13.75212 | 100.59930 | 8927 ft | 313 kts | 322° |
| 2026-05-08 06:20 | 13.76341 | 100.59005 | 9515 ft | 311 kts | 322° |
| 2026-05-08 06:20 | 13.78041 | 100.57670 | 10443 ft | 308 kts | 327° |
| 2026-05-08 06:21 | 13.79882 | 100.56451 | 10842 ft | 323 kts | 329° |
| 2026-05-08 06:21 | 13.82522 | 100.54808 | 11238 ft | 345 kts | 330° |
| 2026-05-08 06:21 | 13.83936 | 100.53928 | 11423 ft | 356 kts | 329° |
| 2026-05-08 06:21 | 13.86071 | 100.52595 | 11721 ft | 371 kts | 329° |
| 2026-05-08 06:22 | 13.88317 | 100.51187 | 12005 ft | 385 kts | 329° |
| 2026-05-08 06:22 | 13.90643 | 100.49726 | 12281 ft | 397 kts | 329° |
| 2026-05-08 06:22 | 13.93033 | 100.48232 | 12698 ft | 404 kts | 330° |
| 2026-05-08 06:22 | 13.95609 | 100.47023 | 13195 ft | 407 kts | 342° |
| 2026-05-08 06:23 | 13.98325 | 100.46128 | 13714 ft | 411 kts | 344° |
| 2026-05-08 06:23 | 14.01076 | 100.45271 | 14141 ft | 415 kts | 343° |
| 2026-05-08 06:23 | 14.03854 | 100.44403 | 14578 ft | 419 kts | 343° |
| 2026-05-08 06:23 | 14.06650 | 100.43524 | 15016 ft | 423 kts | 343° |
| 2026-05-08 06:24 | 14.09442 | 100.42643 | 15459 ft | 426 kts | 343° |
| 2026-05-08 06:24 | 14.12287 | 100.41743 | 15906 ft | 429 kts | 343° |
| 2026-05-08 06:24 | 14.15149 | 100.40836 | 16336 ft | 432 kts | 343° |
| 2026-05-08 06:24 | 14.18038 | 100.39919 | 16772 ft | 435 kts | 343° |
| 2026-05-08 06:25 | 14.20939 | 100.38998 | 17186 ft | 438 kts | 343° |
| 2026-05-08 06:25 | 14.23864 | 100.38069 | 17589 ft | 441 kts | 343° |
| 2026-05-08 06:25 | 14.26813 | 100.37138 | 17980 ft | 445 kts | 343° |
| 2026-05-08 06:25 | 14.29783 | 100.36194 | 18321 ft | 448 kts | 343° |
| 2026-05-08 06:26 | 14.32769 | 100.35243 | 18638 ft | 450 kts | 343° |
| 2026-05-08 06:26 | 14.35767 | 100.34288 | 18961 ft | 452 kts | 343° |
| 2026-05-08 06:26 | 14.38786 | 100.33328 | 19272 ft | 454 kts | 343° |
| 2026-05-08 06:26 | 14.41761 | 100.32217 | 19560 ft | 457 kts | 335° |
| 2026-05-08 06:27 | 14.44503 | 100.30561 | 19839 ft | 458 kts | 322° |
| 2026-05-08 06:27 | 14.46834 | 100.28308 | 20106 ft | 460 kts | 309° |
| 2026-05-08 06:27 | 14.48624 | 100.25572 | 20370 ft | 460 kts | 296° |
| 2026-05-08 06:27 | 14.49989 | 100.22578 | 20647 ft | 462 kts | 292° |
| 2026-05-08 06:28 | 14.51274 | 100.19531 | 20928 ft | 464 kts | 292° |
| 2026-05-08 06:28 | 14.52562 | 100.16474 | 21199 ft | 465 kts | 292° |
| 2026-05-08 06:28 | 14.53847 | 100.13443 | 21462 ft | 467 kts | 292° |
| 2026-05-08 06:28 | 14.55155 | 100.10370 | 21743 ft | 469 kts | 293° |
| 2026-05-08 06:29 | 14.56474 | 100.07278 | 22002 ft | 471 kts | 293° |
| 2026-05-08 06:29 | 14.57799 | 100.04173 | 22257 ft | 474 kts | 293° |
| 2026-05-08 06:29 | 14.59134 | 100.01048 | 22530 ft | 475 kts | 293° |
| 2026-05-08 06:29 | 14.60470 | 99.97917 | 22797 ft | 477 kts | 293° |
| 2026-05-08 06:30 | 14.61810 | 99.94779 | 23047 ft | 479 kts | 293° |
| 2026-05-08 06:30 | 14.63162 | 99.91612 | 23309 ft | 481 kts | 292° |
| 2026-05-08 06:30 | 14.64497 | 99.88481 | 23541 ft | 483 kts | 292° |
| 2026-05-08 06:30 | 14.65855 | 99.85297 | 23754 ft | 485 kts | 293° |
| 2026-05-08 06:31 | 14.67217 | 99.82102 | 23988 ft | 486 kts | 293° |
| 2026-05-08 06:31 | 14.68581 | 99.78900 | 24199 ft | 488 kts | 293° |
| 2026-05-08 06:31 | 14.69952 | 99.75681 | 24416 ft | 490 kts | 293° |
| 2026-05-08 06:31 | 14.71326 | 99.72453 | 24647 ft | 491 kts | 293° |
| 2026-05-08 06:32 | 14.72704 | 99.69214 | 24877 ft | 493 kts | 293° |
| 2026-05-08 06:32 | 14.74086 | 99.65965 | 25100 ft | 495 kts | 293° |
| 2026-05-08 06:32 | 14.75472 | 99.62705 | 25354 ft | 496 kts | 293° |
| 2026-05-08 06:32 | 14.76862 | 99.59433 | 25592 ft | 498 kts | 293° |
| 2026-05-08 06:33 | 14.78259 | 99.56142 | 25832 ft | 501 kts | 293° |
| 2026-05-08 06:33 | 14.79662 | 99.52840 | 26061 ft | 503 kts | 293° |
| 2026-05-08 06:33 | 14.81066 | 99.49529 | 26322 ft | 505 kts | 293° |
| 2026-05-08 06:33 | 14.82480 | 99.46197 | 26576 ft | 507 kts | 293° |
| 2026-05-08 06:34 | 14.83900 | 99.42848 | 26827 ft | 509 kts | 293° |
| 2026-05-08 06:34 | 14.85416 | 99.39537 | 27061 ft | 511 kts | 298° |
| 2026-05-08 06:34 | 14.87319 | 99.36482 | 27317 ft | 513 kts | 306° |
| 2026-05-08 06:34 | 14.89490 | 99.33538 | 27563 ft | 515 kts | 308° |
| 2026-05-08 06:35 | 14.91746 | 99.30654 | 27826 ft | 517 kts | 310° |
| 2026-05-08 06:35 | 14.94052 | 99.27778 | 28083 ft | 518 kts | 310° |
| 2026-05-08 06:35 | 14.96361 | 99.24913 | 28335 ft | 520 kts | 310° |
| 2026-05-08 06:35 | 14.98683 | 99.22020 | 28574 ft | 522 kts | 310° |
| 2026-05-08 06:36 | 15.00997 | 99.19118 | 28815 ft | 523 kts | 310° |
| 2026-05-08 06:36 | 15.03309 | 99.16200 | 29060 ft | 524 kts | 310° |
| 2026-05-08 06:36 | 15.05610 | 99.13283 | 29411 ft | 523 kts | 310° |
| 2026-05-08 06:36 | 15.07903 | 99.10368 | 29785 ft | 522 kts | 310° |
| 2026-05-08 06:37 | 15.10193 | 99.07454 | 30066 ft | 521 kts | 310° |
| 2026-05-08 06:37 | 15.12482 | 99.04540 | 30334 ft | 521 kts | 310° |
| 2026-05-08 06:37 | 15.14767 | 99.01630 | 30594 ft | 520 kts | 310° |
| 2026-05-08 06:37 | 15.17047 | 98.98728 | 30856 ft | 520 kts | 310° |
| 2026-05-08 06:38 | 15.19330 | 98.95821 | 31106 ft | 519 kts | 310° |
| 2026-05-08 06:38 | 15.21578 | 98.92958 | 31367 ft | 518 kts | 310° |
| 2026-05-08 06:38 | 15.23856 | 98.90056 | 31585 ft | 518 kts | 310° |
| 2026-05-08 06:38 | 15.26128 | 98.87161 | 31837 ft | 518 kts | 310° |
| 2026-05-08 06:39 | 15.28405 | 98.84258 | 32086 ft | 517 kts | 310° |
| 2026-05-08 06:39 | 15.30670 | 98.81368 | 32326 ft | 517 kts | 310° |
| 2026-05-08 06:39 | 15.32937 | 98.78475 | 32602 ft | 516 kts | 310° |
| 2026-05-08 06:39 | 15.35198 | 98.75588 | 32833 ft | 515 kts | 310° |
| 2026-05-08 06:40 | 15.37453 | 98.72709 | 33046 ft | 515 kts | 310° |
| 2026-05-08 06:40 | 15.39715 | 98.69820 | 33260 ft | 514 kts | 310° |
| 2026-05-08 06:40 | 15.41970 | 98.66938 | 33477 ft | 514 kts | 310° |
| 2026-05-08 06:40 | 15.44219 | 98.64063 | 33708 ft | 513 kts | 310° |
| 2026-05-08 06:41 | 15.46443 | 98.61229 | 33897 ft | 513 kts | 310° |
| 2026-05-08 06:41 | 15.48897 | 98.58548 | 34072 ft | 511 kts | 319° |
| 2026-05-08 06:41 | 15.51526 | 98.56064 | 34266 ft | 510 kts | 319° |
| 2026-05-08 06:41 | 15.54195 | 98.53631 | 34454 ft | 509 kts | 320° |
| 2026-05-08 06:42 | 15.56880 | 98.51231 | 34635 ft | 509 kts | 320° |
| 2026-05-08 06:42 | 15.59573 | 98.48845 | 34800 ft | 508 kts | 320° |
| 2026-05-08 06:42 | 15.64970 | 98.44065 | 34885 ft | 513 kts | 320° |
| 2026-05-08 06:43 | 15.70427 | 98.39208 | 34877 ft | 520 kts | 320° |
| 2026-05-08 06:43 | 15.75903 | 98.34316 | 34871 ft | 524 kts | 320° |
| 2026-05-08 06:44 | 15.81470 | 98.29337 | 35045 ft | 523 kts | 320° |
| 2026-05-08 06:44 | 15.84183 | 98.26908 | 35273 ft | 519 kts | 319° |
| 2026-05-08 06:44 | 15.86910 | 98.24466 | 35494 ft | 516 kts | 319° |
| 2026-05-08 06:45 | 15.89628 | 98.22032 | 35725 ft | 514 kts | 319° |
| 2026-05-08 06:45 | 15.92331 | 98.19611 | 35958 ft | 511 kts | 319° |
| 2026-05-08 06:45 | 15.95026 | 98.17196 | 36193 ft | 508 kts | 319° |
| 2026-05-08 06:45 | 15.97661 | 98.14834 | 36428 ft | 505 kts | 319° |
| 2026-05-08 06:46 | 16.00314 | 98.12455 | 36675 ft | 502 kts | 319° |
| 2026-05-08 06:46 | 16.02960 | 98.10081 | 36834 ft | 501 kts | 319° |
| 2026-05-08 06:46 | 16.08259 | 98.05324 | 36856 ft | 506 kts | 319° |
| 2026-05-08 06:47 | 16.13611 | 98.00518 | 36851 ft | 510 kts | 319° |
| 2026-05-08 06:47 | 16.18964 | 97.95706 | 36848 ft | 513 kts | 319° |
| 2026-05-08 06:48 | 16.24381 | 97.90833 | 36846 ft | 516 kts | 319° |
| 2026-05-08 06:48 | 16.29815 | 97.85942 | 36842 ft | 517 kts | 319° |
| 2026-05-08 06:49 | 16.35259 | 97.81008 | 36838 ft | 518 kts | 316° |
| 2026-05-08 06:49 | 16.40025 | 97.75389 | 36841 ft | 518 kts | 308° |
| 2026-05-08 06:50 | 16.44464 | 97.69531 | 36839 ft | 518 kts | 307° |
| 2026-05-08 06:50 | 16.48872 | 97.63607 | 36862 ft | 517 kts | 307° |
| 2026-05-08 06:51 | 16.51069 | 97.60656 | 37222 ft | 509 kts | 307° |
| 2026-05-08 06:51 | 16.53226 | 97.57766 | 37632 ft | 502 kts | 307° |
| 2026-05-08 06:51 | 16.55356 | 97.54916 | 38034 ft | 495 kts | 307° |
| 2026-05-08 06:51 | 16.57461 | 97.52103 | 38401 ft | 489 kts | 307° |
| 2026-05-08 06:52 | 16.61642 | 97.46514 | 38516 ft | 489 kts | 307° |
| 2026-05-08 06:52 | 16.65800 | 97.40951 | 38658 ft | 488 kts | 307° |
| 2026-05-08 06:53 | 16.69969 | 97.35371 | 38823 ft | 486 kts | 307° |
| 2026-05-08 06:53 | 16.74137 | 97.29786 | 38842 ft | 488 kts | 307° |
| 2026-05-08 06:54 | 16.78323 | 97.24174 | 38841 ft | 490 kts | 307° |
| 2026-05-08 06:54 | 16.82515 | 97.18548 | 38841 ft | 492 kts | 307° |
| 2026-05-08 06:55 | 16.86728 | 97.12890 | 38840 ft | 494 kts | 307° |
| 2026-05-08 06:55 | 16.90933 | 97.07238 | 38837 ft | 496 kts | 307° |
| 2026-05-08 06:56 | 16.95175 | 97.01532 | 38833 ft | 498 kts | 307° |
| 2026-05-08 06:56 | 16.99431 | 96.95803 | 38835 ft | 500 kts | 307° |
| 2026-05-08 06:57 | 17.03702 | 96.90048 | 38830 ft | 502 kts | 307° |
| 2026-05-08 06:57 | 17.07983 | 96.84274 | 38828 ft | 503 kts | 307° |
| 2026-05-08 06:58 | 17.12271 | 96.78487 | 38829 ft | 503 kts | 307° |
| 2026-05-08 06:58 | 17.16530 | 96.72734 | 38823 ft | 503 kts | 307° |
| 2026-05-08 06:59 | 17.20815 | 96.66942 | 38818 ft | 503 kts | 307° |
| 2026-05-08 06:59 | 17.25100 | 96.61144 | 38815 ft | 503 kts | 307° |
| 2026-05-08 07:00 | 17.29379 | 96.55350 | 38813 ft | 503 kts | 306° |
| 2026-05-08 07:00 | 17.33648 | 96.49561 | 38811 ft | 502 kts | 306° |
| 2026-05-08 07:01 | 17.37862 | 96.43730 | 38809 ft | 502 kts | 305° |
| 2026-05-08 07:01 | 17.42040 | 96.37909 | 38808 ft | 502 kts | 305° |
| 2026-05-08 07:02 | 17.46250 | 96.32056 | 38804 ft | 502 kts | 305° |
| 2026-05-08 07:02 | 17.50457 | 96.26215 | 38809 ft | 502 kts | 305° |
| 2026-05-08 07:03 | 17.54663 | 96.20374 | 38802 ft | 502 kts | 305° |
| 2026-05-08 07:03 | 17.58835 | 96.14574 | 38808 ft | 502 kts | 305° |
| 2026-05-08 07:04 | 17.63037 | 96.08728 | 38805 ft | 502 kts | 305° |
| 2026-05-08 07:04 | 17.67234 | 96.02882 | 38806 ft | 502 kts | 305° |
| 2026-05-08 07:05 | 17.71429 | 95.97035 | 38804 ft | 502 kts | 305° |
| 2026-05-08 07:05 | 17.75621 | 95.91186 | 38801 ft | 501 kts | 305° |
| 2026-05-08 07:06 | 17.79816 | 95.85329 | 38800 ft | 501 kts | 304° |
| 2026-05-08 07:06 | 17.84004 | 95.79476 | 38797 ft | 501 kts | 304° |
| 2026-05-08 07:07 | 17.88172 | 95.73645 | 38802 ft | 501 kts | 304° |
| 2026-05-08 07:07 | 17.92360 | 95.67782 | 38798 ft | 501 kts | 304° |
| 2026-05-08 07:08 | 17.95844 | 95.62900 | 38798 ft | 501 kts | 304° |
| 2026-05-08 07:08 | 18.00702 | 95.56087 | 38797 ft | 501 kts | 304° |
| 2026-05-08 07:09 | 18.04878 | 95.50225 | 38800 ft | 501 kts | 304° |
| 2026-05-08 07:09 | 18.08352 | 95.45343 | 38802 ft | 501 kts | 304° |
| 2026-05-08 07:10 | 18.12525 | 95.39476 | 38796 ft | 501 kts | 304° |
| 2026-05-08 07:10 | 18.16692 | 95.33611 | 38802 ft | 500 kts | 304° |
| 2026-05-08 07:11 | 18.20862 | 95.27737 | 38802 ft | 500 kts | 304° |
| 2026-05-08 07:11 | 18.24991 | 95.21916 | 38804 ft | 500 kts | 304° |
| 2026-05-08 07:12 | 18.29148 | 95.16049 | 38812 ft | 500 kts | 304° |
| 2026-05-08 07:12 | 18.33242 | 95.10137 | 38821 ft | 499 kts | 302° |
| 2026-05-08 07:13 | 18.37160 | 95.04121 | 38826 ft | 498 kts | 302° |
| 2026-05-08 07:13 | 18.41074 | 94.98085 | 38830 ft | 498 kts | 302° |
| 2026-05-08 07:14 | 18.45005 | 94.92079 | 38839 ft | 498 kts | 302° |
| 2026-05-08 07:14 | 18.48959 | 94.86064 | 38841 ft | 498 kts | 302° |
| 2026-05-08 07:15 | 18.52880 | 94.80098 | 38847 ft | 497 kts | 302° |
| 2026-05-08 07:15 | 18.56817 | 94.74101 | 38850 ft | 498 kts | 302° |
| 2026-05-08 07:16 | 18.60802 | 94.68120 | 38854 ft | 498 kts | 303° |
| 2026-05-08 07:16 | 18.64891 | 94.62219 | 38853 ft | 498 kts | 303° |
| 2026-05-08 07:17 | 18.68962 | 94.56359 | 38852 ft | 497 kts | 303° |
| 2026-05-08 07:17 | 18.73033 | 94.50457 | 38851 ft | 497 kts | 303° |
| 2026-05-08 07:18 | 18.77085 | 94.44554 | 38848 ft | 497 kts | 303° |
| 2026-05-08 07:18 | 18.81136 | 94.38644 | 38848 ft | 496 kts | 303° |
| 2026-05-08 07:19 | 18.85181 | 94.32741 | 38844 ft | 496 kts | 303° |
| 2026-05-08 07:19 | 18.89219 | 94.26842 | 38843 ft | 495 kts | 303° |
| 2026-05-08 07:20 | 18.93257 | 94.20939 | 38834 ft | 495 kts | 303° |
| 2026-05-08 07:20 | 18.97283 | 94.15047 | 38833 ft | 494 kts | 303° |
| 2026-05-08 07:21 | 19.01275 | 94.09197 | 38832 ft | 494 kts | 303° |
| 2026-05-08 07:21 | 19.05287 | 94.03315 | 38827 ft | 493 kts | 303° |
| 2026-05-08 07:22 | 19.09297 | 93.97429 | 38829 ft | 493 kts | 303° |
| 2026-05-08 07:22 | 19.13306 | 93.91541 | 38831 ft | 492 kts | 302° |
| 2026-05-08 07:23 | 19.17307 | 93.85658 | 38832 ft | 492 kts | 302° |
| 2026-05-08 07:23 | 19.21303 | 93.79777 | 38836 ft | 492 kts | 302° |
| 2026-05-08 07:24 | 19.25295 | 93.73896 | 38843 ft | 492 kts | 302° |
| 2026-05-08 07:24 | 19.29259 | 93.68050 | 38841 ft | 492 kts | 302° |
| 2026-05-08 07:25 | 19.33247 | 93.62164 | 38845 ft | 492 kts | 302° |
| 2026-05-08 07:26 | 19.39225 | 93.53328 | 38851 ft | 492 kts | 302° |
| 2026-05-08 07:26 | 19.43199 | 93.47448 | 38853 ft | 491 kts | 302° |
| 2026-05-08 07:27 | 19.47181 | 93.41551 | 38854 ft | 491 kts | 302° |
| 2026-05-08 07:27 | 19.51152 | 93.35664 | 38859 ft | 491 kts | 302° |
| 2026-05-08 07:28 | 19.55126 | 93.29766 | 38858 ft | 491 kts | 302° |
| 2026-05-08 07:28 | 19.59096 | 93.23870 | 38863 ft | 491 kts | 302° |
| 2026-05-08 07:29 | 19.63062 | 93.17973 | 38853 ft | 491 kts | 302° |
| 2026-05-08 07:29 | 19.66998 | 93.12116 | 38865 ft | 490 kts | 301° |
| 2026-05-08 07:30 | 19.70952 | 93.06225 | 38854 ft | 490 kts | 301° |
| 2026-05-08 07:30 | 19.74906 | 93.00328 | 38858 ft | 490 kts | 301° |
| 2026-05-08 07:31 | 19.78858 | 92.94429 | 38859 ft | 490 kts | 301° |
| 2026-05-08 07:31 | 19.82801 | 92.88537 | 38859 ft | 489 kts | 301° |
| 2026-05-08 07:32 | 19.86744 | 92.82640 | 38867 ft | 489 kts | 301° |
| 2026-05-08 07:32 | 19.90681 | 92.76747 | 38860 ft | 489 kts | 301° |
| 2026-05-08 07:33 | 19.94599 | 92.70875 | 38864 ft | 489 kts | 301° |
| 2026-05-08 07:33 | 19.98539 | 92.64965 | 38869 ft | 489 kts | 301° |
| 2026-05-08 07:34 | 20.02466 | 92.59068 | 38864 ft | 488 kts | 301° |
| 2026-05-08 07:34 | 20.06374 | 92.53194 | 38869 ft | 488 kts | 301° |
| 2026-05-08 07:35 | 20.10300 | 92.47288 | 38870 ft | 488 kts | 301° |
| 2026-05-08 07:35 | 20.14223 | 92.41379 | 38870 ft | 488 kts | 301° |
| 2026-05-08 07:36 | 20.18137 | 92.35478 | 38868 ft | 487 kts | 301° |
| 2026-05-08 07:36 | 20.22024 | 92.29613 | 38868 ft | 487 kts | 301° |
| 2026-05-08 07:37 | 20.25929 | 92.23714 | 38874 ft | 487 kts | 301° |
| 2026-05-08 07:37 | 20.29830 | 92.17815 | 38871 ft | 486 kts | 301° |
| 2026-05-08 07:38 | 20.33725 | 92.11920 | 38869 ft | 486 kts | 301° |
| 2026-05-08 07:38 | 20.37589 | 92.06064 | 38872 ft | 485 kts | 301° |
| 2026-05-08 07:39 | 20.41465 | 92.00186 | 38874 ft | 484 kts | 301° |
| 2026-05-08 07:39 | 20.45312 | 91.94303 | 38873 ft | 483 kts | 300° |
| 2026-05-08 07:40 | 20.49128 | 91.88388 | 38871 ft | 482 kts | 300° |
| 2026-05-08 07:40 | 20.52930 | 91.82488 | 38873 ft | 481 kts | 300° |
| 2026-05-08 07:41 | 20.56705 | 91.76639 | 38877 ft | 481 kts | 300° |
| 2026-05-08 07:41 | 20.60501 | 91.70758 | 38877 ft | 480 kts | 300° |
| 2026-05-08 07:42 | 20.64285 | 91.64890 | 38879 ft | 480 kts | 300° |
| 2026-05-08 07:42 | 20.68073 | 91.59009 | 38882 ft | 479 kts | 300° |
| 2026-05-08 07:43 | 20.71851 | 91.53137 | 38883 ft | 479 kts | 300° |
| 2026-05-08 07:43 | 20.75597 | 91.47309 | 38885 ft | 478 kts | 300° |
| 2026-05-08 07:44 | 20.79368 | 91.41436 | 38886 ft | 478 kts | 300° |
| 2026-05-08 07:44 | 20.83127 | 91.35575 | 38888 ft | 478 kts | 300° |
| 2026-05-08 07:45 | 20.86883 | 91.29713 | 38886 ft | 478 kts | 300° |
| 2026-05-08 07:45 | 20.90640 | 91.23844 | 38889 ft | 477 kts | 300° |
| 2026-05-08 07:46 | 20.94389 | 91.17983 | 38888 ft | 477 kts | 300° |
| 2026-05-08 07:46 | 20.98115 | 91.12150 | 38889 ft | 477 kts | 300° |
| 2026-05-08 07:47 | 21.01858 | 91.06285 | 38888 ft | 476 kts | 300° |
| 2026-05-08 07:47 | 21.05600 | 91.00414 | 38888 ft | 476 kts | 300° |
| 2026-05-08 07:48 | 21.09333 | 90.94552 | 38893 ft | 476 kts | 300° |
| 2026-05-08 07:48 | 21.13038 | 90.88728 | 38885 ft | 475 kts | 300° |
| 2026-05-08 07:49 | 21.16759 | 90.82873 | 38887 ft | 475 kts | 300° |
| 2026-05-08 07:49 | 21.20479 | 90.77013 | 38890 ft | 475 kts | 300° |
| 2026-05-08 07:50 | 21.24195 | 90.71153 | 38878 ft | 474 kts | 299° |
| 2026-05-08 07:50 | 21.27901 | 90.65303 | 38891 ft | 474 kts | 299° |
| 2026-05-08 07:51 | 21.31606 | 90.59449 | 38882 ft | 474 kts | 299° |
| 2026-05-08 07:51 | 21.35304 | 90.53602 | 38898 ft | 474 kts | 299° |
| 2026-05-08 07:52 | 21.38977 | 90.47793 | 38888 ft | 473 kts | 299° |
| 2026-05-08 07:52 | 21.42673 | 90.41940 | 38886 ft | 473 kts | 299° |
| 2026-05-08 07:53 | 21.46362 | 90.36093 | 38889 ft | 473 kts | 299° |
| 2026-05-08 07:53 | 21.50051 | 90.30240 | 38885 ft | 473 kts | 299° |
| 2026-05-08 07:54 | 21.53738 | 90.24383 | 38885 ft | 472 kts | 299° |
| 2026-05-08 07:54 | 21.57415 | 90.18535 | 38885 ft | 472 kts | 299° |
| 2026-05-08 07:55 | 21.61095 | 90.12676 | 38882 ft | 472 kts | 299° |
| 2026-05-08 07:55 | 21.64745 | 90.06860 | 38882 ft | 472 kts | 299° |
| 2026-05-08 07:56 | 21.68418 | 90.01001 | 38879 ft | 472 kts | 299° |
| 2026-05-08 07:56 | 21.71463 | 89.96138 | 38880 ft | 472 kts | 299° |
| 2026-05-08 07:57 | 21.75146 | 89.90252 | 38883 ft | 472 kts | 299° |
| 2026-05-08 07:57 | 21.78815 | 89.84381 | 38879 ft | 473 kts | 299° |
| 2026-05-08 07:58 | 21.82486 | 89.78500 | 38877 ft | 473 kts | 299° |
| 2026-05-08 07:58 | 21.86148 | 89.72628 | 38874 ft | 473 kts | 299° |
| 2026-05-08 07:59 | 21.89794 | 89.66776 | 38870 ft | 473 kts | 299° |
| 2026-05-08 07:59 | 21.93458 | 89.60887 | 38874 ft | 473 kts | 299° |
| 2026-05-08 08:00 | 21.97123 | 89.54991 | 38875 ft | 473 kts | 299° |
| 2026-05-08 08:00 | 22.00784 | 89.49095 | 38869 ft | 473 kts | 299° |
| 2026-05-08 08:01 | 22.04445 | 89.43193 | 38870 ft | 473 kts | 299° |
| 2026-05-08 08:01 | 22.08102 | 89.37291 | 38872 ft | 473 kts | 298° |
| 2026-05-08 08:02 | 22.11741 | 89.31412 | 38872 ft | 473 kts | 298° |
| 2026-05-08 08:02 | 22.15399 | 89.25494 | 38877 ft | 473 kts | 298° |
| 2026-05-08 08:03 | 22.19048 | 89.19586 | 38873 ft | 473 kts | 298° |
| 2026-05-08 08:03 | 22.22699 | 89.13667 | 38874 ft | 473 kts | 298° |
| 2026-05-08 08:04 | 22.26351 | 89.07740 | 38875 ft | 473 kts | 298° |
| 2026-05-08 08:04 | 22.29996 | 89.01820 | 38873 ft | 473 kts | 298° |
| 2026-05-08 08:05 | 22.33723 | 88.95991 | 38876 ft | 475 kts | 301° |
| 2026-05-08 08:05 | 22.37609 | 88.90221 | 38875 ft | 475 kts | 301° |
| 2026-05-08 08:06 | 22.41490 | 88.84442 | 38876 ft | 475 kts | 301° |
| 2026-05-08 08:06 | 22.45352 | 88.78632 | 38880 ft | 475 kts | 300° |
| 2026-05-08 08:07 | 22.49164 | 88.72866 | 38879 ft | 474 kts | 300° |
| 2026-05-08 08:07 | 22.52999 | 88.67055 | 38882 ft | 474 kts | 300° |
| 2026-05-08 08:08 | 22.56835 | 88.61238 | 38883 ft | 474 kts | 300° |
| 2026-05-08 08:08 | 22.60663 | 88.55429 | 38885 ft | 474 kts | 300° |
| 2026-05-08 08:09 | 22.64491 | 88.49616 | 38885 ft | 474 kts | 300° |
| 2026-05-08 08:09 | 22.68311 | 88.43805 | 38885 ft | 473 kts | 300° |
| 2026-05-08 08:10 | 22.71850 | 88.37844 | 38885 ft | 469 kts | 296° |
| 2026-05-08 08:10 | 22.75209 | 88.31779 | 38883 ft | 469 kts | 296° |
| 2026-05-08 08:11 | 22.78577 | 88.25768 | 38883 ft | 469 kts | 296° |
| 2026-05-08 08:11 | 22.81998 | 88.19756 | 38880 ft | 469 kts | 296° |
| 2026-05-08 08:12 | 22.85441 | 88.13736 | 38877 ft | 468 kts | 296° |
| 2026-05-08 08:12 | 22.88871 | 88.07732 | 38876 ft | 468 kts | 296° |
| 2026-05-08 08:13 | 22.92291 | 88.01736 | 38874 ft | 467 kts | 296° |
| 2026-05-08 08:13 | 22.95703 | 87.95741 | 38873 ft | 467 kts | 296° |
| 2026-05-08 08:14 | 22.99114 | 87.89743 | 38873 ft | 466 kts | 296° |
| 2026-05-08 08:14 | 23.02497 | 87.83785 | 38875 ft | 466 kts | 296° |
| 2026-05-08 08:15 | 23.05896 | 87.77794 | 38873 ft | 466 kts | 296° |
| 2026-05-08 08:15 | 23.09291 | 87.71802 | 38873 ft | 466 kts | 296° |
| 2026-05-08 08:16 | 23.12685 | 87.65805 | 38871 ft | 466 kts | 296° |
| 2026-05-08 08:16 | 23.16077 | 87.59806 | 38871 ft | 466 kts | 296° |
| 2026-05-08 08:17 | 23.19467 | 87.53803 | 38873 ft | 466 kts | 296° |
| 2026-05-08 08:17 | 23.22850 | 87.47804 | 38870 ft | 466 kts | 296° |
| 2026-05-08 08:18 | 23.26234 | 87.41796 | 38869 ft | 465 kts | 296° |
| 2026-05-08 08:18 | 23.29613 | 87.35789 | 38869 ft | 465 kts | 296° |
| 2026-05-08 08:19 | 23.32969 | 87.29819 | 38871 ft | 465 kts | 296° |
| 2026-05-08 08:19 | 23.36344 | 87.23806 | 38874 ft | 465 kts | 295° |
| 2026-05-08 08:20 | 23.39714 | 87.17795 | 38878 ft | 465 kts | 295° |
| 2026-05-08 08:20 | 23.43085 | 87.11777 | 38882 ft | 465 kts | 295° |
| 2026-05-08 08:21 | 23.46453 | 87.05755 | 38880 ft | 465 kts | 295° |
| 2026-05-08 08:21 | 23.49815 | 86.99745 | 38883 ft | 465 kts | 295° |
| 2026-05-08 08:22 | 23.53178 | 86.93735 | 38874 ft | 464 kts | 295° |
| 2026-05-08 08:22 | 23.56537 | 86.87726 | 38896 ft | 464 kts | 295° |
| 2026-05-08 08:23 | 23.59894 | 86.81712 | 38892 ft | 463 kts | 295° |
| 2026-05-08 08:23 | 23.63240 | 86.75720 | 38911 ft | 461 kts | 295° |
| 2026-05-08 08:24 | 23.66555 | 86.69768 | 38895 ft | 462 kts | 295° |
| 2026-05-08 08:24 | 23.69889 | 86.63766 | 38905 ft | 462 kts | 295° |
| 2026-05-08 08:25 | 23.73217 | 86.57773 | 38904 ft | 461 kts | 295° |
| 2026-05-08 08:25 | 23.76551 | 86.51765 | 38905 ft | 461 kts | 295° |
| 2026-05-08 08:26 | 23.79868 | 86.45781 | 38906 ft | 460 kts | 295° |
| 2026-05-08 08:26 | 23.83248 | 86.39842 | 38916 ft | 462 kts | 298° |
| 2026-05-08 08:27 | 23.86916 | 86.34115 | 38909 ft | 463 kts | 300° |
| 2026-05-08 08:27 | 23.90651 | 86.28373 | 38911 ft | 463 kts | 299° |
| 2026-05-08 08:28 | 23.94334 | 86.22608 | 38915 ft | 462 kts | 299° |
| 2026-05-08 08:28 | 23.97984 | 86.16824 | 38923 ft | 461 kts | 298° |
| 2026-05-08 08:29 | 24.01614 | 86.11055 | 38925 ft | 460 kts | 298° |
| 2026-05-08 08:29 | 24.05222 | 86.05312 | 38921 ft | 461 kts | 298° |
| 2026-05-08 08:30 | 24.08860 | 85.99517 | 38921 ft | 462 kts | 298° |
| 2026-05-08 08:30 | 24.14321 | 85.90812 | 38915 ft | 463 kts | 298° |
| 2026-05-08 08:31 | 24.17965 | 85.84996 | 38920 ft | 463 kts | 298° |
| 2026-05-08 08:31 | 24.21611 | 85.79169 | 38916 ft | 463 kts | 298° |
| 2026-05-08 08:32 | 24.25256 | 85.73335 | 38914 ft | 464 kts | 298° |
| 2026-05-08 08:32 | 24.28874 | 85.67539 | 38917 ft | 464 kts | 298° |
| 2026-05-08 08:33 | 24.32511 | 85.61705 | 38913 ft | 463 kts | 298° |
| 2026-05-08 08:33 | 24.36150 | 85.55863 | 38907 ft | 463 kts | 298° |
| 2026-05-08 08:34 | 24.39781 | 85.50024 | 38906 ft | 463 kts | 298° |
| 2026-05-08 08:34 | 24.43412 | 85.44179 | 38905 ft | 462 kts | 298° |
| 2026-05-08 08:35 | 24.47027 | 85.38354 | 38900 ft | 462 kts | 298° |
| 2026-05-08 08:35 | 24.50641 | 85.32524 | 38889 ft | 461 kts | 298° |
| 2026-05-08 08:36 | 24.54224 | 85.26732 | 38886 ft | 461 kts | 298° |
| 2026-05-08 08:36 | 24.57825 | 85.20909 | 38875 ft | 461 kts | 298° |
| 2026-05-08 08:37 | 24.61426 | 85.15077 | 38863 ft | 460 kts | 298° |
| 2026-05-08 08:37 | 24.65025 | 85.09241 | 38839 ft | 460 kts | 298° |
| 2026-05-08 08:38 | 24.68613 | 85.03418 | 38834 ft | 460 kts | 298° |
| 2026-05-08 08:38 | 24.72202 | 84.97585 | 38831 ft | 460 kts | 298° |
| 2026-05-08 08:39 | 24.75152 | 84.91499 | 38834 ft | 451 kts | 288° |
| 2026-05-08 08:39 | 24.77486 | 84.85104 | 38832 ft | 450 kts | 287° |
| 2026-05-08 08:40 | 24.79718 | 84.78665 | 38837 ft | 449 kts | 286° |
| 2026-05-08 08:40 | 24.81939 | 84.72240 | 38841 ft | 449 kts | 286° |
| 2026-05-08 08:41 | 24.84170 | 84.65815 | 38842 ft | 449 kts | 287° |
| 2026-05-08 08:41 | 24.86403 | 84.59399 | 38847 ft | 448 kts | 287° |
| 2026-05-08 08:42 | 24.88632 | 84.52987 | 38847 ft | 448 kts | 287° |
| 2026-05-08 08:42 | 24.90843 | 84.46616 | 38847 ft | 448 kts | 287° |
| 2026-05-08 08:43 | 24.93066 | 84.40201 | 38841 ft | 448 kts | 287° |
| 2026-05-08 08:43 | 24.95282 | 84.33792 | 38841 ft | 447 kts | 286° |
| 2026-05-08 08:44 | 24.97122 | 84.28465 | 38840 ft | 447 kts | 286° |
| 2026-05-08 08:44 | 24.99338 | 84.22039 | 38842 ft | 447 kts | 286° |
| 2026-05-08 08:45 | 25.01543 | 84.15634 | 38840 ft | 447 kts | 286° |
| 2026-05-08 08:45 | 25.03743 | 84.09234 | 38838 ft | 446 kts | 286° |
| 2026-05-08 08:46 | 25.05941 | 84.02828 | 38838 ft | 446 kts | 286° |
| 2026-05-08 08:46 | 25.08125 | 83.96454 | 38832 ft | 446 kts | 286° |
| 2026-05-08 08:47 | 25.10317 | 83.90045 | 38834 ft | 446 kts | 286° |
| 2026-05-08 08:47 | 25.12507 | 83.83632 | 38834 ft | 446 kts | 286° |
| 2026-05-08 08:48 | 25.14693 | 83.77221 | 38830 ft | 447 kts | 286° |
| 2026-05-08 08:48 | 25.16881 | 83.70793 | 38830 ft | 447 kts | 286° |
| 2026-05-08 08:49 | 25.19068 | 83.64359 | 38831 ft | 447 kts | 286° |
| 2026-05-08 08:49 | 25.21251 | 83.57926 | 38826 ft | 447 kts | 286° |
| 2026-05-08 08:50 | 25.23419 | 83.51526 | 38826 ft | 448 kts | 286° |
| 2026-05-08 08:50 | 25.25601 | 83.45073 | 38826 ft | 448 kts | 286° |
| 2026-05-08 08:51 | 25.27780 | 83.38620 | 38821 ft | 448 kts | 286° |
| 2026-05-08 08:51 | 25.29958 | 83.32159 | 38825 ft | 448 kts | 286° |
| 2026-05-08 08:52 | 25.32123 | 83.25727 | 38825 ft | 449 kts | 286° |
| 2026-05-08 08:52 | 25.34298 | 83.19251 | 38826 ft | 449 kts | 286° |
| 2026-05-08 08:53 | 25.36471 | 83.12774 | 38832 ft | 449 kts | 286° |
| 2026-05-08 08:53 | 25.38644 | 83.06286 | 38842 ft | 450 kts | 286° |
| 2026-05-08 08:54 | 25.40803 | 82.99828 | 38850 ft | 450 kts | 286° |
| 2026-05-08 08:54 | 25.42974 | 82.93325 | 38856 ft | 451 kts | 286° |
| 2026-05-08 08:55 | 25.45314 | 82.86876 | 38856 ft | 455 kts | 292° |
| 2026-05-08 08:55 | 25.48785 | 82.80943 | 38857 ft | 462 kts | 300° |
| 2026-05-08 08:56 | 25.52628 | 82.75218 | 38852 ft | 464 kts | 301° |
| 2026-05-08 08:56 | 25.56528 | 82.69514 | 38844 ft | 465 kts | 301° |
| 2026-05-08 08:57 | 25.60421 | 82.63787 | 38836 ft | 465 kts | 301° |
| 2026-05-08 08:57 | 25.64307 | 82.58033 | 38824 ft | 466 kts | 301° |
| 2026-05-08 08:58 | 25.68181 | 82.52278 | 38820 ft | 466 kts | 301° |
| 2026-05-08 08:58 | 25.72032 | 82.46551 | 38819 ft | 466 kts | 301° |
| 2026-05-08 08:59 | 25.75909 | 82.40779 | 38819 ft | 467 kts | 301° |
| 2026-05-08 08:59 | 25.79790 | 82.34997 | 38820 ft | 467 kts | 301° |
| 2026-05-08 09:00 | 25.83672 | 82.29205 | 38820 ft | 467 kts | 301° |
| 2026-05-08 09:00 | 25.87553 | 82.23407 | 38819 ft | 467 kts | 301° |
| 2026-05-08 09:01 | 25.91430 | 82.17607 | 38818 ft | 468 kts | 301° |
| 2026-05-08 09:01 | 25.95304 | 82.11806 | 38827 ft | 467 kts | 301° |
| 2026-05-08 09:02 | 25.99174 | 82.06003 | 38816 ft | 467 kts | 301° |
| 2026-05-08 09:02 | 26.03020 | 82.00229 | 38821 ft | 467 kts | 301° |
| 2026-05-08 09:03 | 26.06888 | 81.94414 | 38816 ft | 467 kts | 301° |
| 2026-05-08 09:03 | 26.10753 | 81.88596 | 38823 ft | 467 kts | 301° |
| 2026-05-08 09:04 | 26.14616 | 81.82773 | 38829 ft | 467 kts | 301° |
| 2026-05-08 09:04 | 26.18455 | 81.76980 | 38824 ft | 467 kts | 302° |
| 2026-05-08 09:05 | 26.22312 | 81.71151 | 38830 ft | 467 kts | 302° |
| 2026-05-08 09:05 | 26.26168 | 81.65317 | 38825 ft | 467 kts | 302° |
| 2026-05-08 09:06 | 26.30031 | 81.59466 | 38829 ft | 467 kts | 302° |
| 2026-05-08 09:06 | 26.33863 | 81.53653 | 38829 ft | 467 kts | 302° |
| 2026-05-08 09:07 | 26.37715 | 81.47804 | 38829 ft | 467 kts | 302° |
| 2026-05-08 09:07 | 26.41563 | 81.41953 | 38834 ft | 467 kts | 302° |
| 2026-05-08 09:08 | 26.45405 | 81.36103 | 38832 ft | 467 kts | 302° |
| 2026-05-08 09:08 | 26.49244 | 81.30249 | 38836 ft | 467 kts | 302° |
| 2026-05-08 09:09 | 26.53057 | 81.24428 | 38836 ft | 467 kts | 302° |
| 2026-05-08 09:09 | 26.56899 | 81.18557 | 38840 ft | 467 kts | 302° |
| 2026-05-08 09:10 | 26.60723 | 81.12703 | 38843 ft | 467 kts | 302° |
| 2026-05-08 09:10 | 26.64552 | 81.06835 | 38850 ft | 467 kts | 302° |
| 2026-05-08 09:11 | 26.68354 | 81.01002 | 38854 ft | 466 kts | 302° |
| 2026-05-08 09:11 | 26.72176 | 80.95131 | 38857 ft | 466 kts | 302° |
| 2026-05-08 09:12 | 26.75991 | 80.89262 | 38858 ft | 466 kts | 302° |
| 2026-05-08 09:12 | 26.80073 | 80.83593 | 38857 ft | 468 kts | 307° |
| 2026-05-08 09:13 | 26.84374 | 80.78162 | 38855 ft | 468 kts | 307° |
| 2026-05-08 09:13 | 26.88676 | 80.72674 | 38845 ft | 468 kts | 307° |
| 2026-05-08 09:14 | 26.92924 | 80.67144 | 38854 ft | 467 kts | 307° |
| 2026-05-08 09:14 | 26.97114 | 80.61639 | 38844 ft | 467 kts | 307° |
| 2026-05-08 09:15 | 27.01326 | 80.56095 | 38842 ft | 467 kts | 307° |
| 2026-05-08 09:15 | 27.05537 | 80.50550 | 38844 ft | 466 kts | 307° |
| 2026-05-08 09:16 | 27.09744 | 80.45005 | 38843 ft | 466 kts | 307° |
| 2026-05-08 09:16 | 27.13945 | 80.39462 | 38840 ft | 466 kts | 307° |
| 2026-05-08 09:17 | 27.18143 | 80.33916 | 38845 ft | 466 kts | 307° |
| 2026-05-08 09:17 | 27.22332 | 80.28375 | 38845 ft | 465 kts | 307° |
| 2026-05-08 09:18 | 27.26527 | 80.22819 | 38845 ft | 465 kts | 307° |
| 2026-05-08 09:18 | 27.30710 | 80.17271 | 38843 ft | 465 kts | 307° |
| 2026-05-08 09:19 | 27.34865 | 80.11753 | 38841 ft | 465 kts | 307° |
| 2026-05-08 09:19 | 27.39042 | 80.06199 | 38845 ft | 464 kts | 307° |
| 2026-05-08 09:20 | 27.43216 | 80.00643 | 38844 ft | 464 kts | 307° |
| 2026-05-08 09:20 | 27.47382 | 79.95089 | 38842 ft | 464 kts | 307° |
| 2026-05-08 09:21 | 27.51523 | 79.89562 | 38840 ft | 464 kts | 307° |